<?xml version="1.0" encoding="UTF-8" standalone="no" ?>
<gpx xmlns="http://www.topografix.com/GPX/1/1" xmlns:xsi="http://www.w3.org/2001/XMLSchema-instance" xsi:schemaLocation="http://www.topografix.com/GPX/1/1 http://www.topografix.com/GPX/1/1/gpx.xsd" version="1.1" creator="VisuGPX - https://www.visugpx.com">
  <metadata>
    <name>tour de beauvoir en royans par le'alevout et la guignardiere</name>
    <desc><![CDATA[très belle vue sur la vallée de l'Isère.
descente entre le Guillon et la Guignardière par un sentier envahi par les ronces et les buissons]]></desc>
  </metadata>
  <trk>
    <name><![CDATA[--Beauvoir-en-Royans-- OR-5904736:tour par l'alevout ]]></name>
    <trkseg>
      <trkpt lat="45.12111" lon="5.33814">
        <ele>255</ele>
        <time>2016-04-03T18:39:57Z</time>
      </trkpt>
      <trkpt lat="45.12047" lon="5.34097">
        <ele>257</ele>
        <time>2016-04-03T18:41:57Z</time>
      </trkpt>
      <trkpt lat="45.12078" lon="5.34213">
        <ele>269</ele>
        <time>2016-04-03T18:43:57Z</time>
      </trkpt>
      <trkpt lat="45.1196" lon="5.34414">
        <ele>274</ele>
        <time>2016-04-03T18:45:57Z</time>
      </trkpt>
      <trkpt lat="45.11984" lon="5.345">
        <ele>281</ele>
        <time>2016-04-03T18:47:57Z</time>
      </trkpt>
      <trkpt lat="45.11947" lon="5.34565">
        <ele>288</ele>
        <time>2016-04-03T18:49:57Z</time>
      </trkpt>
      <trkpt lat="45.11953" lon="5.34642">
        <ele>297</ele>
        <time>2016-04-03T18:51:57Z</time>
      </trkpt>
      <trkpt lat="45.1192" lon="5.34732">
        <ele>301</ele>
        <time>2016-04-03T18:53:57Z</time>
      </trkpt>
      <trkpt lat="45.11908" lon="5.34818">
        <ele>303</ele>
        <time>2016-04-03T18:55:57Z</time>
      </trkpt>
      <trkpt lat="45.11953" lon="5.34904">
        <ele>314</ele>
        <time>2016-04-03T18:57:57Z</time>
      </trkpt>
      <trkpt lat="45.11775" lon="5.35243">
        <ele>348</ele>
        <time>2016-04-03T18:59:57Z</time>
      </trkpt>
      <trkpt lat="45.11981" lon="5.35792">
        <ele>347</ele>
        <time>2016-04-03T19:01:57Z</time>
      </trkpt>
      <trkpt lat="45.11987" lon="5.35938">
        <ele>351</ele>
        <time>2016-04-03T19:03:57Z</time>
      </trkpt>
      <trkpt lat="45.1189" lon="5.36084">
        <ele>370</ele>
        <time>2016-04-03T19:05:57Z</time>
      </trkpt>
      <trkpt lat="45.12111" lon="5.36084">
        <ele>343</ele>
        <time>2016-04-03T19:07:57Z</time>
      </trkpt>
      <trkpt lat="45.12053" lon="5.36251">
        <ele>363</ele>
        <time>2016-04-03T19:09:57Z</time>
      </trkpt>
      <trkpt lat="45.12059" lon="5.36483">
        <ele>379</ele>
        <time>2016-04-03T19:11:57Z</time>
      </trkpt>
      <trkpt lat="45.12032" lon="5.36788">
        <ele>402</ele>
        <time>2016-04-03T19:13:57Z</time>
      </trkpt>
      <trkpt lat="45.12102" lon="5.36758">
        <ele>384</ele>
        <time>2016-04-03T19:15:57Z</time>
      </trkpt>
      <trkpt lat="45.12096" lon="5.36869">
        <ele>396</ele>
        <time>2016-04-03T19:17:57Z</time>
      </trkpt>
      <trkpt lat="45.12144" lon="5.36959">
        <ele>427</ele>
        <time>2016-04-03T19:19:57Z</time>
      </trkpt>
      <trkpt lat="45.12262" lon="5.36981">
        <ele>432</ele>
        <time>2016-04-03T19:21:57Z</time>
      </trkpt>
      <trkpt lat="45.1222" lon="5.37097">
        <ele>468</ele>
        <time>2016-04-03T19:23:57Z</time>
      </trkpt>
      <trkpt lat="45.1229" lon="5.37273">
        <ele>514</ele>
        <time>2016-04-03T19:25:57Z</time>
      </trkpt>
      <trkpt lat="45.12202" lon="5.37281">
        <ele>534</ele>
        <time>2016-04-03T19:27:57Z</time>
      </trkpt>
      <trkpt lat="45.1222" lon="5.37376">
        <ele>571</ele>
        <time>2016-04-03T19:29:57Z</time>
      </trkpt>
      <trkpt lat="45.12066" lon="5.37328">
        <ele>587</ele>
        <time>2016-04-03T19:31:57Z</time>
      </trkpt>
      <trkpt lat="45.12023" lon="5.37384">
        <ele>633</ele>
        <time>2016-04-03T19:33:57Z</time>
      </trkpt>
      <trkpt lat="45.12302" lon="5.37753">
        <ele>696</ele>
        <time>2016-04-03T19:35:57Z</time>
      </trkpt>
      <trkpt lat="45.12314" lon="5.37856">
        <ele>732</ele>
        <time>2016-04-03T19:37:57Z</time>
      </trkpt>
      <trkpt lat="45.1235" lon="5.37916">
        <ele>744</ele>
        <time>2016-04-03T19:39:57Z</time>
      </trkpt>
      <trkpt lat="45.12308" lon="5.37993">
        <ele>796</ele>
        <time>2016-04-03T19:41:57Z</time>
      </trkpt>
      <trkpt lat="45.12435" lon="5.38148">
        <ele>798</ele>
        <time>2016-04-03T19:43:57Z</time>
      </trkpt>
      <trkpt lat="45.1242" lon="5.38204">
        <ele>812</ele>
        <time>2016-04-03T19:45:57Z</time>
      </trkpt>
      <trkpt lat="45.1232" lon="5.38212">
        <ele>832</ele>
        <time>2016-04-03T19:47:57Z</time>
      </trkpt>
      <trkpt lat="45.12311" lon="5.38268">
        <ele>845</ele>
        <time>2016-04-03T19:49:57Z</time>
      </trkpt>
      <trkpt lat="45.12199" lon="5.38191">
        <ele>847</ele>
        <time>2016-04-03T19:51:57Z</time>
      </trkpt>
      <trkpt lat="45.12078" lon="5.37839">
        <ele>819</ele>
        <time>2016-04-03T19:53:57Z</time>
      </trkpt>
      <trkpt lat="45.11766" lon="5.37642">
        <ele>749</ele>
        <time>2016-04-03T19:55:57Z</time>
      </trkpt>
      <trkpt lat="45.11651" lon="5.37916">
        <ele>789</ele>
        <time>2016-04-03T19:57:57Z</time>
      </trkpt>
      <trkpt lat="45.11541" lon="5.38022">
        <ele>793</ele>
        <time>2016-04-03T19:59:57Z</time>
      </trkpt>
      <trkpt lat="45.11451" lon="5.38028">
        <ele>776</ele>
        <time>2016-04-03T20:01:57Z</time>
      </trkpt>
      <trkpt lat="45.11337" lon="5.38132">
        <ele>772</ele>
        <time>2016-04-03T20:03:57Z</time>
      </trkpt>
      <trkpt lat="45.11293" lon="5.38297">
        <ele>763</ele>
        <time>2016-04-03T20:05:57Z</time>
      </trkpt>
      <trkpt lat="45.11199" lon="5.38377">
        <ele>723</ele>
        <time>2016-04-03T20:07:57Z</time>
      </trkpt>
      <trkpt lat="45.11183" lon="5.38411">
        <ele>720</ele>
        <time>2016-04-03T20:09:57Z</time>
      </trkpt>
      <trkpt lat="45.1119" lon="5.38551">
        <ele>751</ele>
        <time>2016-04-03T20:11:57Z</time>
      </trkpt>
      <trkpt lat="45.11168" lon="5.38569">
        <ele>751</ele>
        <time>2016-04-03T20:13:57Z</time>
      </trkpt>
      <trkpt lat="45.11145" lon="5.38586">
        <ele>755</ele>
        <time>2016-04-03T20:15:57Z</time>
      </trkpt>
      <trkpt lat="45.11034" lon="5.38508">
        <ele>736</ele>
        <time>2016-04-03T20:17:57Z</time>
      </trkpt>
      <trkpt lat="45.11015" lon="5.38535">
        <ele>743</ele>
        <time>2016-04-03T20:19:57Z</time>
      </trkpt>
      <trkpt lat="45.11" lon="5.38643">
        <ele>772</ele>
        <time>2016-04-03T20:21:57Z</time>
      </trkpt>
      <trkpt lat="45.10981" lon="5.38632">
        <ele>773</ele>
        <time>2016-04-03T20:23:57Z</time>
      </trkpt>
      <trkpt lat="45.1095" lon="5.3862">
        <ele>777</ele>
        <time>2016-04-03T20:25:57Z</time>
      </trkpt>
      <trkpt lat="45.10933" lon="5.38588">
        <ele>774</ele>
        <time>2016-04-03T20:27:57Z</time>
      </trkpt>
      <trkpt lat="45.10903" lon="5.38607">
        <ele>787</ele>
        <time>2016-04-03T20:29:57Z</time>
      </trkpt>
      <trkpt lat="45.10759" lon="5.38633">
        <ele>869</ele>
        <time>2016-04-03T20:31:57Z</time>
      </trkpt>
      <trkpt lat="45.10772" lon="5.38591">
        <ele>857</ele>
        <time>2016-04-03T20:33:57Z</time>
      </trkpt>
      <trkpt lat="45.10791" lon="5.38441">
        <ele>834</ele>
        <time>2016-04-03T20:35:57Z</time>
      </trkpt>
      <trkpt lat="45.10831" lon="5.38335">
        <ele>807</ele>
        <time>2016-04-03T20:37:57Z</time>
      </trkpt>
      <trkpt lat="45.10873" lon="5.38269">
        <ele>775</ele>
        <time>2016-04-03T20:39:57Z</time>
      </trkpt>
      <trkpt lat="45.10786" lon="5.38084">
        <ele>757</ele>
        <time>2016-04-03T20:41:57Z</time>
      </trkpt>
      <trkpt lat="45.1076" lon="5.38068">
        <ele>758</ele>
        <time>2016-04-03T20:43:57Z</time>
      </trkpt>
      <trkpt lat="45.10759" lon="5.38023">
        <ele>749</ele>
        <time>2016-04-03T20:45:57Z</time>
      </trkpt>
      <trkpt lat="45.107" lon="5.37931">
        <ele>748</ele>
        <time>2016-04-03T20:47:57Z</time>
      </trkpt>
      <trkpt lat="45.10673" lon="5.37887">
        <ele>752</ele>
        <time>2016-04-03T20:49:57Z</time>
      </trkpt>
      <trkpt lat="45.10588" lon="5.37869">
        <ele>780</ele>
        <time>2016-04-03T20:51:57Z</time>
      </trkpt>
      <trkpt lat="45.10591" lon="5.37699">
        <ele>766</ele>
        <time>2016-04-03T20:53:57Z</time>
      </trkpt>
      <trkpt lat="45.10475" lon="5.37509">
        <ele>784</ele>
        <time>2016-04-03T20:55:57Z</time>
      </trkpt>
      <trkpt lat="45.10496" lon="5.3718">
        <ele>732</ele>
        <time>2016-04-03T20:57:57Z</time>
      </trkpt>
      <trkpt lat="45.10505" lon="5.371">
        <ele>715</ele>
        <time>2016-04-03T20:59:57Z</time>
      </trkpt>
      <trkpt lat="45.10549" lon="5.37061">
        <ele>702</ele>
        <time>2016-04-03T21:01:57Z</time>
      </trkpt>
      <trkpt lat="45.10548" lon="5.37028">
        <ele>696</ele>
        <time>2016-04-03T21:03:57Z</time>
      </trkpt>
      <trkpt lat="45.10598" lon="5.36924">
        <ele>671</ele>
        <time>2016-04-03T21:05:57Z</time>
      </trkpt>
      <trkpt lat="45.10601" lon="5.3688">
        <ele>658</ele>
        <time>2016-04-03T21:07:57Z</time>
      </trkpt>
      <trkpt lat="45.10729" lon="5.36519">
        <ele>589</ele>
        <time>2016-04-03T21:09:57Z</time>
      </trkpt>
      <trkpt lat="45.10778" lon="5.36479">
        <ele>590</ele>
        <time>2016-04-03T21:11:57Z</time>
      </trkpt>
      <trkpt lat="45.10782" lon="5.36447">
        <ele>589</ele>
        <time>2016-04-03T21:13:57Z</time>
      </trkpt>
      <trkpt lat="45.10814" lon="5.36318">
        <ele>598</ele>
        <time>2016-04-03T21:15:57Z</time>
      </trkpt>
      <trkpt lat="45.10869" lon="5.36252">
        <ele>606</ele>
        <time>2016-04-03T21:17:57Z</time>
      </trkpt>
      <trkpt lat="45.10898" lon="5.3625">
        <ele>610</ele>
        <time>2016-04-03T21:19:57Z</time>
      </trkpt>
      <trkpt lat="45.10945" lon="5.36178">
        <ele>591</ele>
        <time>2016-04-03T21:21:57Z</time>
      </trkpt>
      <trkpt lat="45.10928" lon="5.36126">
        <ele>585</ele>
        <time>2016-04-03T21:23:57Z</time>
      </trkpt>
      <trkpt lat="45.10956" lon="5.36067">
        <ele>565</ele>
        <time>2016-04-03T21:25:57Z</time>
      </trkpt>
      <trkpt lat="45.11008" lon="5.36089">
        <ele>564</ele>
        <time>2016-04-03T21:27:57Z</time>
      </trkpt>
      <trkpt lat="45.11118" lon="5.36017">
        <ele>516</ele>
        <time>2016-04-03T21:29:57Z</time>
      </trkpt>
      <trkpt lat="45.11195" lon="5.36006">
        <ele>502</ele>
        <time>2016-04-03T21:31:57Z</time>
      </trkpt>
      <trkpt lat="45.11309" lon="5.36025">
        <ele>485</ele>
        <time>2016-04-03T21:33:57Z</time>
      </trkpt>
      <trkpt lat="45.11395" lon="5.35944">
        <ele>473</ele>
        <time>2016-04-03T21:35:57Z</time>
      </trkpt>
      <trkpt lat="45.11513" lon="5.35975">
        <ele>467</ele>
        <time>2016-04-03T21:37:57Z</time>
      </trkpt>
      <trkpt lat="45.11768" lon="5.35958">
        <ele>419</ele>
        <time>2016-04-03T21:39:57Z</time>
      </trkpt>
      <trkpt lat="45.11792" lon="5.35922">
        <ele>413</ele>
        <time>2016-04-03T21:41:57Z</time>
      </trkpt>
      <trkpt lat="45.11817" lon="5.35913">
        <ele>406</ele>
        <time>2016-04-03T21:43:57Z</time>
      </trkpt>
      <trkpt lat="45.11859" lon="5.35867">
        <ele>389</ele>
        <time>2016-04-03T21:45:57Z</time>
      </trkpt>
      <trkpt lat="45.11978" lon="5.35952">
        <ele>354</ele>
        <time>2016-04-03T21:47:57Z</time>
      </trkpt>
      <trkpt lat="45.11962" lon="5.35829">
        <ele>358</ele>
        <time>2016-04-03T21:49:57Z</time>
      </trkpt>
      <trkpt lat="45.11963" lon="5.358">
        <ele>354</ele>
        <time>2016-04-03T21:51:57Z</time>
      </trkpt>
      <trkpt lat="45.11832" lon="5.35496">
        <ele>354</ele>
        <time>2016-04-03T21:53:57Z</time>
      </trkpt>
      <trkpt lat="45.1177" lon="5.35245">
        <ele>349</ele>
        <time>2016-04-03T21:55:57Z</time>
      </trkpt>
      <trkpt lat="45.1195" lon="5.34919">
        <ele>315</ele>
        <time>2016-04-03T21:57:57Z</time>
      </trkpt>
      <trkpt lat="45.11916" lon="5.3481">
        <ele>302</ele>
        <time>2016-04-03T21:59:57Z</time>
      </trkpt>
      <trkpt lat="45.11919" lon="5.3471">
        <ele>301</ele>
        <time>2016-04-03T22:01:57Z</time>
      </trkpt>
      <trkpt lat="45.11948" lon="5.34663">
        <ele>299</ele>
        <time>2016-04-03T22:03:57Z</time>
      </trkpt>
      <trkpt lat="45.11941" lon="5.34585">
        <ele>291</ele>
        <time>2016-04-03T22:05:57Z</time>
      </trkpt>
      <trkpt lat="45.11969" lon="5.34509">
        <ele>282</ele>
        <time>2016-04-03T22:07:57Z</time>
      </trkpt>
      <trkpt lat="45.11955" lon="5.34448">
        <ele>277</ele>
        <time>2016-04-03T22:09:57Z</time>
      </trkpt>
      <trkpt lat="45.11959" lon="5.34392">
        <ele>273</ele>
        <time>2016-04-03T22:11:57Z</time>
      </trkpt>
      <trkpt lat="45.12071" lon="5.34256">
        <ele>270</ele>
        <time>2016-04-03T22:13:57Z</time>
      </trkpt>
      <trkpt lat="45.12059" lon="5.34114">
        <ele>260</ele>
        <time>2016-04-03T22:15:57Z</time>
      </trkpt>
      <trkpt lat="45.12088" lon="5.3389">
        <ele>254</ele>
        <time>2016-04-03T22:17:57Z</time>
      </trkpt>
      <trkpt lat="45.12108" lon="5.33812">
        <ele>255</ele>
        <time>2016-04-03T22:19:57Z</time>
      </trkpt>
    </trkseg>
  </trk>
</gpx>